Chadstone Weather > Observations for 11/03/21

Select Day:



Observations
Time Temp Hum DP Wind Gust Dir Rain >9am Press
C % C kph kph mm hPa
00:00 15.1 85 12.6 0.0 1.1 SW 0.0 1002.7
00:10 15.0 86 12.7 0.0 0.0 N 0.0 1002.1
00:20 14.9 87 12.8 0.0 0.0 N 0.0 1002.4
00:30 14.7 87 12.6 0.0 0.0 N 0.0 1002.1
00:40 14.6 87 12.5 0.0 0.0 N 0.0 1002.3
00:50 14.4 87 12.3 0.0 0.0 N 0.0 1002.1
01:00 14.4 87 12.3 0.0 0.0 N 0.0 1002.5
01:10 14.2 87 12.1 0.0 0.0 N 0.0 1002.2
01:20 14.1 88 12.1 0.0 0.0 N 0.0 1001.9
01:30 14.1 88 12.1 0.0 0.0 N 0.0 1002.1
01:40 13.9 89 12.1 0.0 0.0 N 0.0 1001.6
01:50 13.6 89 11.8 0.0 0.0 N 0.0 1001.3
02:00 13.5 89 11.7 0.0 0.0 N 0.0 1001.6
02:10 13.3 89 11.5 0.0 0.0 N 0.0 1001.3
02:20 13.3 90 11.7 0.0 0.0 N 0.0 1001.0
02:30 13.2 90 11.6 0.0 0.0 N 0.0 1001.1
02:40 13.1 90 11.5 0.0 0.0 N 0.0 1001.0
02:50 13.0 90 11.4 0.0 0.0 N 0.0 1001.1
03:00 13.0 90 11.4 0.0 0.0 N 0.0 1000.9
03:10 13.0 91 11.6 0.0 0.0 N 0.0 1001.2
03:20 13.1 91 11.7 0.0 0.0 N 0.0 1000.7
03:30 13.1 91 11.7 0.0 0.0 N 0.0 1000.6
03:40 13.1 91 11.7 0.0 0.0 N 0.0 1000.6
03:50 13.0 91 11.6 0.0 0.0 N 0.0 1000.8
04:00 13.0 91 11.6 0.0 0.0 N 0.0 1000.5
04:10 12.9 91 11.5 0.0 0.0 N 0.0 1000.5
04:20 12.9 92 11.6 0.0 0.0 N 0.0 1000.5
04:30 12.7 92 11.4 0.0 0.0 N 0.0 1000.7
04:40 12.7 92 11.4 0.0 0.0 N 0.0 1000.6
04:50 12.7 92 11.4 0.0 0.0 N 0.0 1000.3
05:00 12.6 92 11.3 0.0 0.0 N 0.0 1000.5
05:10 12.7 92 11.4 0.0 0.0 N 0.0 1000.7
05:20 12.7 92 11.4 0.0 0.0 N 0.0 1000.9
05:30 12.8 92 11.5 0.0 0.0 N 0.0 1001.0
05:40 12.8 93 11.7 0.0 0.0 N 0.0 1000.8
05:50 12.7 93 11.6 0.0 0.0 N 0.0 1001.2
06:00 12.7 93 11.6 0.0 0.0 N 0.0 1001.2
06:10 12.7 93 11.6 0.0 0.0 N 0.0 1001.3
06:20 12.7 93 11.6 0.0 0.0 N 0.0 1001.3
06:30 12.7 93 11.6 0.0 0.0 N 0.0 1001.5
06:40 12.7 93 11.6 0.0 0.0 N 0.0 1001.7
06:50 12.7 93 11.6 0.8 8.6 N 0.0 1001.8
07:00 12.7 94 11.8 4.9 11.2 NNW 0.0 1002.2
07:10 12.6 94 11.7 3.8 9.7 N 0.0 1002.2
07:20 12.6 94 11.7 2.2 6.1 N 0.0 1002.2
07:30 12.6 94 11.7 1.2 5.0 NNW 0.0 1002.3
07:40 12.7 94 11.8 2.9 7.2 NE 0.0 1002.3
07:50 12.9 95 12.1 2.5 7.2 NNE 0.0 1002.5
08:00 13.1 95 12.3 1.6 6.1 NNE 0.0 1002.6
08:10 13.4 95 12.6 2.6 6.1 NNE 0.0 1002.4
08:20 13.7 95 12.9 2.4 6.1 NNE 0.0 1002.4
08:30 13.9 96 13.3 2.5 6.1 N 0.0 1002.5
08:40 14.1 95 13.3 3.0 9.7 NNE 0.0 1002.6
08:50 14.5 95 13.7 4.2 9.7 N 0.0 1002.7
09:00 15.0 94 14.0 4.4 9.7 N 0.0 1002.7
09:10 15.4 94 14.4 5.5 11.2 NW 0.0 1002.7
09:20 15.7 93 14.6 3.9 8.6 N 0.0 1002.6
09:30 15.9 93 14.8 4.5 8.6 NW 0.0 1002.5
09:40 16.3 91 14.8 4.2 8.6 NNW 0.0 1002.5
09:50 16.6 90 15.0 4.7 11.2 N 0.0 1002.2
10:00 16.8 89 15.0 4.0 7.2 N 0.0 1002.2
10:10 17.2 87 15.0 4.0 7.2 NNW 0.0 1002.4
10:20 17.5 86 15.1 2.7 9.7 NW 0.0 1002.3
10:30 17.9 85 15.4 3.1 9.7 N 0.0 1002.3
10:40 18.3 85 15.7 1.9 8.6 N 0.0 1002.1
10:50 19.0 81 15.7 2.6 7.2 N 0.0 1001.9
11:00 19.7 80 16.2 2.3 7.2 NNE 0.0 1001.7
11:10 20.1 77 16.0 3.6 9.7 NE 0.0 1001.6
11:20 20.8 76 16.4 2.0 7.2 NW 0.0 1001.3
11:30 21.3 73 16.3 2.1 6.1 NNW 0.0 1001.2
11:40 21.9 72 16.6 1.9 6.1 NNE 0.0 1001.0
11:50 22.3 70 16.6 1.7 5.0 NNW 0.0 1000.8
12:00 23.0 68 16.8 1.6 7.2 SW 0.0 1000.7
12:10 23.4 67 16.9 2.5 7.2 NNE 0.0 1000.6
12:20 23.7 66 17.0 1.2 6.1 NNE 0.0 1000.5
12:30 23.7 65 16.7 3.1 11.2 NNE 0.0 1000.3
12:40 24.0 65 17.0 4.0 7.2 W 0.0 1000.2
12:50 24.4 64 17.2 4.0 8.6 NW 0.0 999.9
13:00 24.4 64 17.2 1.7 5.0 NW 0.0 999.7
13:10 25.0 62 17.2 4.4 11.2 N 0.0 999.6
13:20 25.5 60 17.2 6.2 13.3 N 0.0 999.4
13:30 26.3 57 17.1 5.2 12.2 NE 0.0 999.3
13:40 26.3 56 16.8 5.3 15.8 NE 0.0 999.2
13:50 26.3 54 16.3 7.1 15.8 NNE 0.0 999.1
14:00 26.1 55 16.4 6.6 14.8 N 0.0 999.0
14:10 25.9 56 16.5 6.4 14.8 N 0.0 999.0
14:20 25.8 57 16.7 6.5 12.2 NNW 0.0 999.0
14:30 25.7 58 16.8 7.3 14.8 NNW 0.0 998.9
14:40 25.7 58 16.8 5.5 9.7 N 0.0 999.0
14:50 25.7 59 17.1 4.3 9.7 NW 0.0 999.0
15:00 25.8 59 17.2 5.6 12.2 NW 0.0 998.9
15:10 25.9 59 17.3 4.7 12.2 N 0.0 998.9
15:20 25.9 58 17.0 3.5 7.2 NNW 0.0 998.8
15:30 26.0 57 16.8 4.8 9.7 N 0.0 998.6
15:40 26.1 57 16.9 1.5 7.2 N 0.0 998.5
15:50 26.3 56 16.8 3.7 7.2 NE 0.0 998.5
16:00 26.3 56 16.8 1.2 6.1 ENE 0.0 998.4
16:10 26.3 57 17.1 3.4 13.3 SSE 0.0 998.5
16:20 25.7 59 17.1 4.0 9.7 S 0.0 998.3
16:30 25.2 62 17.4 4.7 11.2 SSE 0.0 998.3
16:40 24.4 64 17.2 2.4 11.2 SSW 0.0 998.2
16:50 23.8 66 17.1 3.8 11.2 SW 0.0 998.2
17:00 23.3 68 17.1 0.8 7.2 SSW 0.0 998.2
17:10 22.8 69 16.8 4.5 11.2 SSE 0.0 998.4
17:20 22.6 69 16.6 2.3 8.6 SE 0.0 998.6
17:30 22.5 68 16.3 0.7 5.0 SW 0.0 998.7
17:40 22.5 68 16.3 0.7 5.0 S 0.0 998.8
17:50 22.6 68 16.4 1.1 7.2 SSW 0.0 998.8
18:00 22.5 69 16.5 1.2 7.2 WSW 0.0 999.0
18:10 22.1 70 16.4 1.0 6.1 WSW 0.0 999.1
18:20 21.7 72 16.4 1.0 5.0 SW 0.0 999.1
18:30 21.4 72 16.2 1.7 7.2 SSW 0.0 999.3
18:40 21.3 72 16.1 0.8 6.1 SSE 0.0 999.4
18:50 21.3 73 16.3 0.5 6.1 SW 0.0 999.5
19:00 21.3 73 16.3 0.4 6.1 S 0.0 999.4
19:10 21.3 74 16.5 0.7 7.2 SSW 0.0 999.3
19:20 21.3 76 16.9 1.2 7.2 S 0.0 999.5
19:30 21.3 77 17.1 1.9 6.1 S 0.0 999.3
19:40 21.4 77 17.2 1.4 6.1 SE 0.0 999.3
19:50 21.3 78 17.3 0.2 3.6 SSW 0.0 999.6
20:00 21.2 79 17.4 0.0 1.1 SW 0.0 999.8
20:10 21.2 80 17.6 0.6 5.0 SW 0.0 999.8
20:20 21.1 80 17.5 1.5 8.6 S 0.0 999.9
20:30 21.1 80 17.5 2.2 7.2 SSE 0.0 1000.0
20:40 21.0 79 17.2 1.9 6.1 SE 0.0 999.9
20:50 21.0 79 17.2 3.4 11.2 SE 0.0 1000.1
21:00 20.8 79 17.0 4.7 13.3 SSE 0.0 1000.0
21:10 20.6 77 16.4 6.0 13.3 SE 0.0 1000.1
21:20 20.5 77 16.3 5.8 13.3 SE 0.0 1000.1
21:30 20.4 76 16.0 3.2 7.2 S 0.0 1001.5
21:40 20.4 76 16.0 0.5 5.0 SSW 0.0 1002.9
21:50 20.3 76 15.9 0.6 3.6 S 0.0 1003.3
22:00 20.3 77 16.1 0.0 2.5 SSW 0.0 1002.9
22:10 20.1 77 16.0 0.2 3.6 SSW 0.0 1003.6
22:20 20.1 78 16.2 0.1 2.5 SW 0.0 1004.0
22:30 20.0 78 16.1 0.2 3.6 SW 0.0 1004.1
22:40 20.1 79 16.4 0.1 2.5 S 0.0 1004.4
22:50 20.1 79 16.4 0.3 3.6 WSW 0.0 1004.1
23:00 20.1 79 16.4 0.1 2.5 W 0.0 1002.9
23:10 20.2 80 16.7 0.2 3.6 W 0.0 1003.5
23:20 20.3 81 16.9 0.3 6.1 W 0.0 1004.0
23:30 20.2 81 16.8 2.6 7.2 W 0.0 1002.7
23:40 20.2 83 17.2 1.3 6.1 W 0.0 1003.2
23:50 20.2 83 17.2 2.6 7.2 W 0.0 1002.9